Time;durP1;ratioP1;P1;durP2;ratioP2;P2;SDS_P1;SDS_P2;PMS_P1;PMS_P2;Temp;Humidity;BMP_temperature;BMP_pressure;BME280_temperature;BME280_humidity;BME280_pressure;Samples;Min_cycle;Max_cycle;Signal;HPM_P1;HPM_P2
2024/02/20 00:01:40;;;;;;;6.03;2.60;;;9.70;99.90;;;;;;5007850;28;20069;-70
2024/02/20 00:04:08;;;;;;;6.30;3.37;;;9.70;99.90;;;;;;5025750;28;20414;-70
2024/02/20 00:06:35;;;;;;;7.10;3.30;;;9.80;99.90;;;;;;5025781;28;20064;-69
2024/02/20 00:09:04;;;;;;;3.55;2.60;;;9.80;99.90;;;;;;5025936;28;20022;-73
2024/02/20 00:11:30;;;;;;;7.10;2.47;;;9.80;99.90;;;;;;5026045;28;20068;-73
2024/02/20 00:13:58;;;;;;;4.07;2.30;;;9.90;99.90;;;;;;5024934;28;20053;-73
2024/02/20 00:16:24;;;;;;;5.25;2.50;;;9.80;99.90;;;;;;5017971;28;20265;-73
2024/02/20 00:18:50;;;;;;;4.60;2.60;;;9.90;99.90;;;;;;5006359;28;20029;-69
2024/02/20 00:21:16;;;;;;;3.45;1.92;;;9.90;99.90;;;;;;5005369;28;20026;-70
2024/02/20 00:23:43;;;;;;;4.55;2.15;;;9.90;99.90;;;;;;5006015;28;20038;-69
2024/02/20 00:26:09;;;;;;;4.78;2.50;;;9.90;99.90;;;;;;5015583;28;20059;-70
2024/02/20 00:28:40;;;;;;;3.35;2.65;;;9.90;99.90;;;;;;5025126;28;20091;-69
2024/02/20 00:31:06;;;;;;;3.90;2.42;;;9.90;99.90;;;;;;5024979;28;20037;-69
2024/02/20 00:33:33;;;;;;;3.45;2.38;;;9.80;99.90;;;;;;5025302;28;20033;-71
2024/02/20 00:35:58;;;;;;;5.53;2.80;;;9.80;99.90;;;;;;5025470;28;20095;-69
2024/02/20 00:38:24;;;;;;;5.67;3.03;;;9.90;99.90;;;;;;5025685;28;20112;-69
2024/02/20 00:40:49;;;;;;;4.53;2.83;;;9.90;99.90;;;;;;5025914;28;20045;-70
2024/02/20 00:43:15;;;;;;;5.30;3.07;;;9.90;99.90;;;;;;5025738;28;20025;-69
2024/02/20 00:45:40;;;;;;;5.13;2.90;;;9.90;99.90;;;;;;5025867;28;20079;-69
2024/02/20 00:48:06;;;;;;;3.33;2.57;;;9.90;99.90;;;;;;5025667;28;20029;-70
2024/02/20 00:50:32;;;;;;;2.63;2.05;;;9.90;99.90;;;;;;5024654;28;20042;-70
2024/02/20 00:52:58;;;;;;;4.75;2.53;;;9.90;99.90;;;;;;5024501;28;20037;-70
2024/02/20 00:55:24;;;;;;;5.05;2.40;;;9.90;99.90;;;;;;5007087;28;20025;-72
2024/02/20 00:57:49;;;;;;;4.13;2.57;;;9.90;99.90;;;;;;5024211;28;20472;-70
2024/02/20 01:00:15;;;;;;;3.87;2.43;;;9.80;99.90;;;;;;5013253;28;20030;-70
2024/02/20 01:02:41;;;;;;;4.33;2.27;;;9.80;99.90;;;;;;5011454;28;20056;-71
2024/02/20 01:05:09;;;;;;;4.50;2.50;;;9.90;99.90;;;;;;5024904;28;20029;-69
2024/02/20 01:07:39;;;;;;;3.90;1.90;;;9.90;99.90;;;;;;5024851;28;20055;-71
2024/02/20 01:10:05;;;;;;;3.33;2.00;;;9.90;99.90;;;;;;5024320;28;20529;-72
2024/02/20 01:12:31;;;;;;;3.45;2.17;;;9.90;99.90;;;;;;5024244;28;20033;-72
2024/02/20 01:14:58;;;;;;;4.53;1.97;;;9.90;99.90;;;;;;5024234;28;20029;-69
2024/02/20 01:17:24;;;;;;;2.30;1.40;;;9.90;99.90;;;;;;5024369;28;20260;-70
2024/02/20 01:19:49;;;;;;;3.15;1.58;;;9.90;99.90;;;;;;5024302;28;20087;-69
2024/02/20 01:22:15;;;;;;;4.23;2.17;;;9.90;99.90;;;;;;5025027;28;20030;-69
2024/02/20 01:24:41;;;;;;;4.30;2.43;;;9.90;99.90;;;;;;5025069;28;20065;-70
2024/02/20 01:27:06;;;;;;;8.37;3.23;;;9.90;99.90;;;;;;5024665;28;20120;-70
2024/02/20 01:29:32;;;;;;;4.60;2.38;;;9.80;99.90;;;;;;5008963;28;20041;-70
2024/02/20 01:31:58;;;;;;;4.83;2.73;;;9.80;99.90;;;;;;5008657;28;20096;-70
2024/02/20 01:34:23;;;;;;;5.27;2.60;;;9.80;99.90;;;;;;5008362;28;20026;-73
2024/02/20 01:36:52;;;;;;;5.70;2.80;;;9.80;99.90;;;;;;5008936;28;20026;-71
2024/02/20 01:39:20;;;;;;;4.47;2.75;;;9.80;99.90;;;;;;5008807;28;20033;-70
2024/02/20 01:41:47;;;;;;;4.10;2.35;;;9.80;99.90;;;;;;5008399;28;20050;-70
2024/02/20 01:44:12;;;;;;;3.60;2.22;;;9.80;99.90;;;;;;5008808;28;20017;-73
2024/02/20 01:46:38;;;;;;;5.10;2.50;;;9.80;99.90;;;;;;5008469;28;20045;-72
2024/02/20 01:49:04;;;;;;;3.43;2.00;;;9.90;99.90;;;;;;5008632;28;20295;-73
2024/02/20 01:51:32;;;;;;;5.40;2.38;;;9.80;99.90;;;;;;5009637;28;20107;-73
2024/02/20 01:53:58;;;;;;;3.15;1.88;;;9.80;99.90;;;;;;5009120;28;20060;-72
2024/02/20 01:56:26;;;;;;;3.33;1.95;;;9.80;99.90;;;;;;5007945;28;20022;-72
2024/02/20 01:58:52;;;;;;;4.10;2.38;;;9.80;99.90;;;;;;5008630;28;20508;-72
2024/02/20 02:01:18;;;;;;;3.45;2.17;;;9.80;99.90;;;;;;5009392;28;20069;-69
2024/02/20 02:03:45;;;;;;;3.22;2.08;;;9.80;99.90;;;;;;5008505;28;20713;-70
2024/02/20 02:06:11;;;;;;;;;;;9.80;99.90;;;;;;5009028;28;20628;-70
2024/02/20 02:08:37;;;;;;;3.70;2.45;;;9.80;99.90;;;;;;5008230;28;19909;-72
2024/02/20 02:11:02;;;;;;;3.10;1.87;;;9.70;99.90;;;;;;5008495;28;20083;-71
2024/02/20 02:13:28;;;;;;;6.40;2.20;;;9.70;99.90;;;;;;5008133;28;20497;-70
2024/02/20 02:15:54;;;;;;;4.90;2.30;;;9.70;99.90;;;;;;5008043;28;20037;-70
2024/02/20 02:18:19;;;;;;;3.13;1.83;;;9.80;99.90;;;;;;5008059;28;20030;-70
2024/02/20 02:20:45;;;;;;;4.20;1.80;;;9.70;99.90;;;;;;5008192;28;20276;-70
2024/02/20 02:23:11;;;;;;;6.00;1.83;;;9.70;99.90;;;;;;5008070;28;20025;-69
2024/02/20 02:25:36;;;;;;;4.40;1.60;;;9.70;99.90;;;;;;5008041;28;20037;-70
2024/02/20 02:28:02;;;;;;;3.80;1.70;;;9.70;99.90;;;;;;5008688;28;20040;-69
2024/02/20 02:30:28;;;;;;;3.47;1.93;;;9.60;99.90;;;;;;5009265;28;20026;-71
2024/02/20 02:32:54;;;;;;;2.95;1.95;;;9.60;99.90;;;;;;5008387;28;20033;-71
2024/02/20 02:35:19;;;;;;;4.13;2.00;;;9.60;99.90;;;;;;5008106;28;20034;-71
2024/02/20 02:37:45;;;;;;;5.67;2.20;;;9.60;99.90;;;;;;5007271;28;20296;-73
2024/02/20 02:40:12;;;;;;;5.30;1.60;;;9.60;99.90;;;;;;5007471;28;20033;-69
2024/02/20 02:42:37;;;;;;;5.70;2.20;;;9.50;99.90;;;;;;5008022;28;20327;-69
2024/02/20 02:45:04;;;;;;;3.92;2.20;;;9.60;99.90;;;;;;5007974;28;20406;-69
2024/02/20 02:47:29;;;;;;;4.32;1.88;;;9.60;99.90;;;;;;5007549;28;20076;-70
2024/02/20 02:49:55;;;;;;;4.07;2.03;;;9.50;99.90;;;;;;5007442;28;20062;-70
2024/02/20 02:52:21;;;;;;;3.47;2.30;;;9.50;99.90;;;;;;5007486;28;20113;-69
2024/02/20 02:54:47;;;;;;;4.18;2.00;;;9.50;99.90;;;;;;5007253;28;20021;-69
2024/02/20 02:57:13;;;;;;;8.83;2.77;;;9.50;99.90;;;;;;5010786;28;20464;-70
2024/02/20 02:59:38;;;;;;;5.00;1.93;;;9.50;99.90;;;;;;5027525;28;20030;-72
2024/02/20 03:02:04;;;;;;;4.40;2.27;;;9.50;99.90;;;;;;5027785;28;20082;-72
2024/02/20 03:04:31;;;;;;;6.05;2.45;;;9.50;99.90;;;;;;5028351;28;20038;-72
2024/02/20 03:06:58;;;;;;;5.20;2.17;;;9.50;99.90;;;;;;5026927;28;20211;-70
2024/02/20 03:09:24;;;;;;;8.80;2.22;;;9.50;99.90;;;;;;5026859;28;20966;-70
2024/02/20 03:11:49;;;;;;;5.85;2.53;;;9.50;99.90;;;;;;5026831;28;20021;-70
2024/02/20 03:14:16;;;;;;;5.57;2.17;;;9.40;99.90;;;;;;5021636;28;20030;-71
2024/02/20 03:16:42;;;;;;;9.93;2.28;;;9.40;99.90;;;;;;5007389;28;20038;-69
2024/02/20 03:19:08;;;;;;;8.97;1.80;;;9.30;99.90;;;;;;5007295;28;20025;-73
2024/02/20 03:21:33;;;;;;;6.00;2.33;;;9.40;99.90;;;;;;5006352;28;20045;-72
2024/02/20 03:23:59;;;;;;;7.13;2.33;;;9.40;99.90;;;;;;5009629;28;20473;-72
2024/02/20 03:26:26;;;;;;;7.83;1.97;;;9.40;99.90;;;;;;5007659;28;20100;-73
2024/02/20 03:28:52;;;;;;;5.93;1.90;;;9.40;99.90;;;;;;5008508;28;20058;-70
2024/02/20 03:31:18;;;;;;;7.45;1.90;;;9.40;99.90;;;;;;5007108;28;20049;-69
2024/02/20 03:33:44;;;;;;;6.43;1.90;;;9.40;99.90;;;;;;5006912;28;20038;-70
2024/02/20 03:36:09;;;;;;;4.87;2.20;;;9.40;99.90;;;;;;5006169;28;20088;-73
2024/02/20 03:38:36;;;;;;;6.57;2.10;;;9.40;99.90;;;;;;5006065;28;20040;-69
2024/02/20 03:41:01;;;;;;;3.92;1.85;;;9.40;99.90;;;;;;5005880;28;20048;-68
2024/02/20 03:43:28;;;;;;;7.07;1.88;;;9.40;99.90;;;;;;5006104;28;20112;-70
2024/02/20 03:45:54;;;;;;;6.03;2.10;;;9.40;99.90;;;;;;5005751;28;20045;-71
2024/02/20 03:48:20;;;;;;;8.80;2.87;;;9.40;99.90;;;;;;5006232;28;20264;-69
2024/02/20 03:50:45;;;;;;;8.20;2.03;;;9.30;99.90;;;;;;5006944;28;20049;-70
2024/02/20 03:53:11;;;;;;;23.43;3.63;;;9.30;99.90;;;;;;5006615;28;20901;-72
2024/02/20 03:55:36;;;;;;;5.57;1.87;;;9.40;99.90;;;;;;5006531;28;20022;-72
2024/02/20 03:58:02;;;;;;;8.83;2.27;;;9.40;99.90;;;;;;5006400;28;20112;-73
2024/02/20 04:00:28;;;;;;;13.25;2.45;;;9.40;99.90;;;;;;5005860;28;20237;-72
2024/02/20 04:02:56;;;;;;;6.03;2.30;;;9.40;99.90;;;;;;5006090;28;20042;-70
2024/02/20 04:05:22;;;;;;;6.75;2.10;;;9.40;99.90;;;;;;5006106;28;20067;-72
2024/02/20 04:07:48;;;;;;;7.22;2.78;;;9.40;99.90;;;;;;5006618;28;20080;-70
2024/02/20 04:10:15;;;;;;;7.40;2.30;;;9.40;99.90;;;;;;5005437;28;20473;-69
2024/02/20 04:12:42;;;;;;;11.57;2.30;;;9.40;99.90;;;;;;5004045;28;20029;-70
2024/02/20 04:15:10;;;;;;;4.13;1.77;;;9.40;99.90;;;;;;5011822;28;20041;-69
2024/02/20 04:17:36;;;;;;;4.97;2.10;;;9.40;99.90;;;;;;5014342;28;20042;-69
2024/02/20 04:20:07;;;;;;;5.20;2.10;;;9.40;99.90;;;;;;5014496;28;20076;-69
2024/02/20 04:22:32;;;;;;;4.22;1.85;;;9.40;99.90;;;;;;5007771;28;20037;-70
2024/02/20 04:25:01;;;;;;;8.07;2.58;;;9.40;99.90;;;;;;5016047;28;20056;-68
2024/02/20 04:27:28;;;;;;;13.32;3.60;;;9.30;99.90;;;;;;5015343;28;20049;-70
2024/02/20 04:29:54;;;;;;;5.38;2.95;;;9.30;99.90;;;;;;5013877;28;20112;-70
2024/02/20 04:32:21;;;;;;;10.87;3.37;;;9.30;99.90;;;;;;5006039;28;20462;-71
2024/02/20 04:34:47;;;;;;;6.82;2.75;;;9.30;99.90;;;;;;5013979;28;20080;-68
2024/02/20 04:37:14;;;;;;;13.07;2.77;;;9.30;99.90;;;;;;5017875;28;20385;-70
2024/02/20 04:39:40;;;;;;;9.32;3.20;;;9.30;99.90;;;;;;5013486;28;20571;-70
2024/02/20 04:42:06;;;;;;;6.45;3.05;;;9.30;99.90;;;;;;5007717;28;20065;-72
2024/02/20 04:44:31;;;;;;;7.43;3.00;;;9.30;99.90;;;;;;5015272;28;20046;-69
2024/02/20 04:46:57;;;;;;;8.20;2.60;;;9.30;99.90;;;;;;5014982;28;20525;-69
2024/02/20 04:49:22;;;;;;;5.33;2.07;;;9.20;99.90;;;;;;5014685;28;20512;-71
2024/02/20 04:51:48;;;;;;;6.60;2.17;;;9.20;99.90;;;;;;5013182;28;20033;-69
2024/02/20 04:54:14;;;;;;;6.57;2.10;;;9.20;99.90;;;;;;5013789;28;20128;-69
2024/02/20 04:56:40;;;;;;;7.40;2.42;;;9.20;99.90;;;;;;5013411;28;20461;-73
2024/02/20 04:59:05;;;;;;;6.60;1.90;;;9.30;99.90;;;;;;5012357;28;20038;-69
2024/02/20 05:01:31;;;;;;;7.63;2.40;;;9.20;99.90;;;;;;5016518;28;20112;-73
2024/02/20 05:03:56;;;;;;;5.53;2.70;;;9.20;99.90;;;;;;5016760;28;20101;-72
2024/02/20 05:06:22;;;;;;;9.30;3.30;;;9.20;99.90;;;;;;5026217;28;20080;-72
2024/02/20 05:08:48;;;;;;;10.93;3.10;;;9.20;99.90;;;;;;5018787;28;20033;-72
2024/02/20 05:11:13;;;;;;;9.10;2.87;;;9.30;99.90;;;;;;5014541;28;20048;-72
2024/02/20 05:13:40;;;;;;;4.57;2.50;;;9.30;99.90;;;;;;5019528;28;20030;-73
2024/02/20 05:16:06;;;;;;;9.43;2.92;;;9.30;99.90;;;;;;5013932;28;20509;-68
2024/02/20 05:18:31;;;;;;;10.25;3.97;;;9.20;99.90;;;;;;5019624;28;20544;-72
2024/02/20 05:20:57;;;;;;;6.53;3.23;;;9.20;99.90;;;;;;5014573;28;20033;-73
2024/02/20 05:23:22;;;;;;;7.87;2.57;;;9.20;99.90;;;;;;5019226;28;20037;-70
2024/02/20 05:25:48;;;;;;;8.33;2.83;;;9.20;99.90;;;;;;5019520;28;20038;-69
2024/02/20 05:28:14;;;;;;;4.93;2.40;;;9.20;99.90;;;;;;5012440;28;20053;-72
2024/02/20 05:30:40;;;;;;;7.83;2.87;;;9.20;99.90;;;;;;5024602;28;20114;-71
2024/02/20 05:33:05;;;;;;;5.38;2.00;;;9.20;99.90;;;;;;5000478;28;20029;-70
2024/02/20 05:35:32;;;;;;;5.55;1.95;;;9.20;99.90;;;;;;5012321;28;20592;-70
2024/02/20 05:37:58;;;;;;;5.65;2.20;;;9.20;99.90;;;;;;5016174;28;20087;-73
2024/02/20 05:40:24;;;;;;;4.35;1.85;;;9.20;99.90;;;;;;5015134;28;20072;-69
2024/02/20 05:42:50;;;;;;;9.43;2.47;;;9.20;99.90;;;;;;5019762;28;20062;-71
2024/02/20 05:45:18;;;;;;;3.55;1.88;;;9.20;99.90;;;;;;5016095;28;20025;-71
2024/02/20 05:47:43;;;;;;;3.92;2.20;;;9.20;99.90;;;;;;5014070;28;20513;-69
2024/02/20 05:50:10;;;;;;;4.90;2.13;;;9.20;99.90;;;;;;5022572;28;20026;-73
2024/02/20 05:52:39;;;;;;;7.63;2.40;;;9.20;99.90;;;;;;5020087;28;20048;-70
2024/02/20 05:55:06;;;;;;;7.00;2.28;;;9.20;99.90;;;;;;5011827;28;20201;-74
2024/02/20 05:57:32;;;;;;;5.47;2.42;;;9.10;99.90;;;;;;5019016;28;20045;-73
2024/02/20 05:59:58;;;;;;;4.13;1.85;;;9.20;99.90;;;;;;5016437;28;20038;-75
2024/02/20 06:02:23;;;;;;;5.83;2.50;;;9.10;99.90;;;;;;5011153;28;20556;-72
2024/02/20 06:04:50;;;;;;;4.45;1.95;;;9.10;99.90;;;;;;5012951;28;20029;-76
2024/02/20 06:07:15;;;;;;;5.43;2.28;;;9.10;99.90;;;;;;5012487;28;20061;-70
2024/02/20 06:09:43;;;;;;;4.63;2.13;;;9.00;99.90;;;;;;5021441;28;20442;-74
2024/02/20 06:12:12;;;;;;;5.63;1.92;;;9.00;99.90;;;;;;4992036;28;20441;-73
2024/02/20 06:14:42;;;;;;;6.95;2.40;;;9.00;99.90;;;;;;5018289;28;20638;-74
2024/02/20 06:17:07;;;;;;;4.95;2.20;;;9.00;99.90;;;;;;5018224;28;20496;-74
2024/02/20 06:19:33;;;;;;;4.10;2.40;;;9.00;99.90;;;;;;5019771;28;20034;-74
2024/02/20 06:21:59;;;;;;;10.23;2.50;;;8.90;99.90;;;;;;5015852;28;20037;-70
2024/02/20 06:24:24;;;;;;;2.40;2.13;;;8.80;99.90;;;;;;5016716;28;20061;-73
2024/02/20 06:26:50;;;;;;;8.30;2.57;;;8.80;99.90;;;;;;5017332;28;20042;-74
2024/02/20 06:29:15;;;;;;;5.40;1.97;;;8.80;99.90;;;;;;5019114;28;20553;-74
2024/02/20 06:31:41;;;;;;;5.77;2.80;;;8.80;99.90;;;;;;5024402;28;20036;-74
2024/02/20 06:34:09;;;;;;;6.53;2.30;;;8.90;99.90;;;;;;5021790;28;20666;-72
2024/02/20 06:36:34;;;;;;;4.50;2.28;;;8.90;99.90;;;;;;5013634;28;20096;-73
2024/02/20 06:39:02;;;;;;;5.43;2.27;;;8.90;99.90;;;;;;5016013;28;20493;-74
2024/02/20 06:41:28;;;;;;;4.82;2.10;;;8.90;99.90;;;;;;5016068;28;20277;-74
2024/02/20 06:43:53;;;;;;;4.60;2.30;;;9.00;99.90;;;;;;5018164;28;20037;-74
2024/02/20 06:46:19;;;;;;;5.20;2.73;;;9.00;99.90;;;;;;5018016;28;20088;-72
2024/02/20 06:48:46;;;;;;;4.47;2.43;;;9.00;99.90;;;;;;5019181;28;20036;-69
2024/02/20 06:51:12;;;;;;;5.88;3.55;;;9.00;99.90;;;;;;5019191;28;20037;-74
2024/02/20 06:53:38;;;;;;;6.68;2.70;;;9.00;99.90;;;;;;5016056;28;20095;-69
2024/02/20 06:56:04;;;;;;;6.40;2.67;;;9.10;99.90;;;;;;5017687;28;20120;-70
2024/02/20 06:58:29;;;;;;;5.60;2.42;;;9.10;99.90;;;;;;5018354;28;20037;-71
2024/02/20 07:00:55;;;;;;;6.57;2.33;;;9.10;99.90;;;;;;5017096;28;20041;-73
2024/02/20 07:03:20;;;;;;;13.70;2.70;;;9.20;99.90;;;;;;5017919;28;20072;-70
2024/02/20 07:05:46;;;;;;;6.83;2.47;;;9.10;99.90;;;;;;5016451;28;20065;-71
2024/02/20 07:08:12;;;;;;;5.32;3.05;;;9.20;99.90;;;;;;5016561;28;20038;-74
2024/02/20 07:10:38;;;;;;;7.47;2.90;;;9.20;99.90;;;;;;5015935;28;20104;-73
2024/02/20 07:13:04;;;;;;;5.57;2.70;;;9.20;99.90;;;;;;5013702;28;20030;-74
2024/02/20 07:15:30;;;;;;;5.18;2.05;;;9.10;99.90;;;;;;5018087;28;20299;-73
2024/02/20 07:17:55;;;;;;;5.60;2.85;;;9.10;99.90;;;;;;5016057;28;20041;-74
2024/02/20 07:20:22;;;;;;;6.70;2.73;;;9.10;99.90;;;;;;5016101;28;20092;-73
2024/02/20 07:22:48;;;;;;;5.78;2.90;;;9.10;99.90;;;;;;5016943;28;20077;-75
2024/02/20 07:25:14;;;;;;;3.45;2.55;;;9.10;99.90;;;;;;5019625;28;20030;-75
2024/02/20 07:27:39;;;;;;;7.57;2.40;;;9.20;99.90;;;;;;5022964;28;20128;-71
2024/02/20 07:30:06;;;;;;;8.10;2.67;;;9.20;99.90;;;;;;5016961;28;20025;-71
2024/02/20 07:32:31;;;;;;;8.23;3.60;;;9.20;99.90;;;;;;5015603;28;20033;-76
2024/02/20 07:34:58;;;;;;;7.50;3.37;;;9.20;99.90;;;;;;5015063;28;20091;-72
2024/02/20 07:37:23;;;;;;;9.25;2.85;;;9.20;99.90;;;;;;5018482;28;20025;-74
2024/02/20 07:39:49;;;;;;;5.83;3.47;;;9.30;99.90;;;;;;5017022;28;20641;-71
2024/02/20 07:42:14;;;;;;;7.20;2.80;;;9.20;99.90;;;;;;5006104;28;20120;-73
2024/02/20 07:44:40;;;;;;;7.27;2.40;;;9.30;99.90;;;;;;5017214;28;20029;-71
2024/02/20 07:47:06;;;;;;;6.27;3.07;;;9.40;99.90;;;;;;5017045;28;20033;-76
2024/02/20 07:49:31;;;;;;;4.20;2.60;;;9.50;99.90;;;;;;5013150;28;20500;-75
2024/02/20 07:51:57;;;;;;;8.97;2.70;;;9.50;99.90;;;;;;5015944;28;20455;-74
2024/02/20 07:54:23;;;;;;;5.32;2.75;;;9.60;99.90;;;;;;5020384;28;20486;-75
2024/02/20 07:56:49;;;;;;;4.03;2.80;;;9.80;99.90;;;;;;5011709;28;20520;-76
2024/02/20 07:59:15;;;;;;;;;;;9.80;99.90;;;;;;5014185;28;20093;-74
2024/02/20 08:01:49;;;;;;;15.60;2.70;;;9.90;99.90;;;;;;5016223;28;19906;-74
2024/02/20 08:04:15;;;;;;;5.43;2.80;;;9.80;99.90;;;;;;5016932;28;20044;-75
2024/02/20 08:06:41;;;;;;;7.07;2.60;;;9.90;99.90;;;;;;5019879;28;20029;-75
2024/02/20 08:09:06;;;;;;;5.00;2.47;;;10.00;99.90;;;;;;5005949;28;20671;-73
2024/02/20 08:11:34;;;;;;;7.97;2.77;;;10.00;99.90;;;;;;4995424;28;20067;-75
2024/02/20 08:13:59;;;;;;;6.10;2.72;;;10.00;99.90;;;;;;4992476;28;20034;-74
2024/02/20 08:16:25;;;;;;;6.57;2.90;;;10.10;99.90;;;;;;4996235;28;20446;-76
2024/02/20 08:18:51;;;;;;;8.07;2.38;;;10.00;99.90;;;;;;4996868;28;20611;-75
2024/02/20 08:21:16;;;;;;;6.47;3.00;;;10.20;99.90;;;;;;4997119;28;20121;-75
2024/02/20 08:23:42;;;;;;;7.07;2.77;;;10.30;99.90;;;;;;5000770;28;20030;-78
2024/02/20 08:26:08;;;;;;;4.72;2.42;;;10.70;99.90;;;;;;4996130;28;20041;-71
2024/02/20 08:28:34;;;;;;;7.70;2.72;;;10.90;99.90;;;;;;4995622;28;20442;-74
2024/02/20 08:30:59;;;;;;;5.83;2.70;;;12.40;99.90;;;;;;5001220;28;20491;-72
2024/02/20 08:33:25;;;;;;;5.67;2.67;;;12.60;99.90;;;;;;4997849;28;20757;-68
2024/02/20 08:35:55;;;;;;;7.30;2.92;;;12.90;99.90;;;;;;4997815;28;20026;-74
2024/02/20 08:38:20;;;;;;;6.93;2.60;;;12.50;99.90;;;;;;4992688;28;20045;-71
2024/02/20 08:40:46;;;;;;;4.50;2.83;;;12.10;99.90;;;;;;4994025;28;20039;-71
2024/02/20 08:43:12;;;;;;;9.27;3.20;;;13.40;99.90;;;;;;4989219;28;20038;-74
2024/02/20 08:45:38;;;;;;;8.57;3.08;;;13.90;98.00;;;;;;4995449;28;20060;-72
2024/02/20 08:48:04;;;;;;;5.30;2.40;;;14.80;96.30;;;;;;5009151;28;20848;-76
2024/02/20 08:50:30;;;;;;;9.00;2.83;;;16.30;91.40;;;;;;4996646;28;20281;-72
2024/02/20 08:52:55;;;;;;;4.20;2.15;;;16.90;89.40;;;;;;4989809;28;20045;-71
2024/02/20 08:55:21;;;;;;;4.57;1.97;;;17.70;82.80;;;;;;4998352;28;20446;-69
2024/02/20 08:57:47;;;;;;;4.95;2.50;;;16.20;86.30;;;;;;4995062;28;20034;-69
2024/02/20 09:00:13;;;;;;;8.70;2.45;;;15.20;89.90;;;;;;4996531;28;20033;-70
2024/02/20 09:02:39;;;;;;;4.75;3.20;;;14.60;90.80;;;;;;5009114;28;20044;-69
2024/02/20 09:05:06;;;;;;;6.95;2.60;;;14.00;91.90;;;;;;4998146;28;20035;-68
2024/02/20 09:07:31;;;;;;;;;;;13.40;93.60;;;;;;4993529;28;20041;-69
2024/02/20 09:09:57;;;;;;;5.45;2.15;;;13.30;94.10;;;;;;4997874;28;19980;-69
2024/02/20 09:12:23;;;;;;;6.80;2.87;;;13.00;94.80;;;;;;4985864;28;20909;-71
2024/02/20 09:14:48;;;;;;;6.77;2.73;;;14.20;94.20;;;;;;4994720;28;20349;-71
2024/02/20 09:17:15;;;;;;;5.25;2.58;;;13.50;93.90;;;;;;5000640;28;20038;-73
2024/02/20 09:19:41;;;;;;;7.35;2.60;;;13.70;94.30;;;;;;4997415;28;20038;-73
2024/02/20 09:22:10;;;;;;;4.65;2.63;;;14.10;92.80;;;;;;4996066;28;20041;-70
2024/02/20 09:24:36;;;;;;;5.38;2.40;;;13.50;93.30;;;;;;4994198;28;20084;-73
2024/02/20 09:27:04;;;;;;;4.88;2.30;;;13.60;93.90;;;;;;4995086;28;20527;-76
2024/02/20 09:29:31;;;;;;;6.95;2.88;;;13.20;94.00;;;;;;5008053;28;20537;-79
2024/02/20 09:31:58;;;;;;;4.05;2.20;;;13.30;94.20;;;;;;4995020;28;20100;-77
2024/02/20 09:34:24;;;;;;;6.32;3.13;;;14.30;92.10;;;;;;4995455;28;20022;-77
2024/02/20 09:36:49;;;;;;;6.43;3.00;;;13.90;92.40;;;;;;4997618;28;20474;-77
2024/02/20 09:39:15;;;;;;;4.67;2.73;;;14.70;92.10;;;;;;4998013;28;20029;-77
2024/02/20 09:41:41;;;;;;;5.77;2.50;;;15.50;90.30;;;;;;4994471;28;20038;-75
2024/02/20 09:44:08;;;;;;;7.00;2.83;;;14.50;90.80;;;;;;4996620;28;20538;-76
2024/02/20 09:46:44;;;;;;;7.00;3.40;;;14.00;92.10;;;;;;4998938;28;20046;-76
2024/02/20 09:49:09;;;;;;;6.35;2.75;;;13.70;92.70;;;;;;5002604;28;20117;-78
2024/02/20 09:51:37;;;;;;;3.57;2.33;;;13.80;92.40;;;;;;5003937;28;20426;-76
2024/02/20 09:54:04;;;;;;;9.05;2.28;;;13.50;92.70;;;;;;5002089;28;20058;-76
2024/02/20 09:56:35;;;;;;;7.35;2.35;;;13.40;92.40;;;;;;4998791;28;20129;-76
2024/02/20 09:59:01;;;;;;;9.45;2.67;;;13.40;92.80;;;;;;5000216;28;20030;-77
2024/02/20 10:01:27;;;;;;;7.13;2.03;;;13.40;92.50;;;;;;5003066;28;20034;-77
2024/02/20 10:03:57;;;;;;;5.35;2.08;;;13.50;91.90;;;;;;4998583;28;20376;-74
2024/02/20 10:06:25;;;;;;;11.98;2.50;;;13.40;91.30;;;;;;5003215;28;20046;-72
2024/02/20 10:08:52;;;;;;;6.25;2.38;;;13.20;92.00;;;;;;4999413;28;20019;-76
2024/02/20 10:11:17;;;;;;;6.05;2.30;;;13.40;92.20;;;;;;4997947;28;20539;-76
2024/02/20 10:13:44;;;;;;;5.90;1.83;;;14.30;91.70;;;;;;5002470;28;20034;-74
2024/02/20 10:16:13;;;;;;;;;;;13.90;90.50;;;;;;4999777;28;20409;-76
2024/02/20 10:18:39;;;;;;;6.93;1.88;;;13.60;90.60;;;;;;4998366;28;19955;-76
2024/02/20 10:21:05;;;;;;;7.72;2.88;;;13.70;90.70;;;;;;5002864;28;20109;-77
2024/02/20 10:23:31;;;;;;;12.38;2.83;;;15.00;87.80;;;;;;5000102;28;20199;-77
2024/02/20 10:25:57;;;;;;;15.33;3.20;;;15.40;85.40;;;;;;4997946;28;20105;-73
2024/02/20 10:28:24;;;;;;;9.73;2.20;;;15.10;85.30;;;;;;4998160;28;20026;-74
2024/02/20 10:30:50;;;;;;;4.95;2.03;;;14.80;85.20;;;;;;4997826;28;20046;-73
2024/02/20 10:33:16;;;;;;;7.82;2.80;;;14.70;86.50;;;;;;5002871;28;20026;-74
2024/02/20 10:35:42;;;;;;;8.63;3.07;;;15.20;84.50;;;;;;4995526;28;20034;-77
2024/02/20 10:38:11;;;;;;;8.48;2.70;;;15.20;84.50;;;;;;5002232;28;20030;-73
2024/02/20 10:40:37;;;;;;;8.27;2.78;;;14.90;84.30;;;;;;5002721;28;20109;-74
2024/02/20 10:43:06;;;;;;;9.60;2.80;;;14.40;86.40;;;;;;5007993;28;20121;-73
2024/02/20 10:45:31;;;;;;;4.85;2.05;;;14.00;87.30;;;;;;5001044;28;20045;-73
2024/02/20 10:48:02;;;;;;;9.17;2.53;;;14.20;88.00;;;;;;4996959;28;20109;-73
2024/02/20 10:50:31;;;;;;;10.70;3.05;;;14.50;88.40;;;;;;4994573;28;20026;-75
2024/02/20 10:53:00;;;;;;;11.07;2.83;;;14.50;87.30;;;;;;4997071;28;20030;-72
2024/02/20 10:55:29;;;;;;;9.52;2.90;;;14.10;87.00;;;;;;4992499;28;20041;-73
2024/02/20 10:57:57;;;;;;;12.25;2.70;;;14.00;87.80;;;;;;4998485;28;20026;-73
2024/02/20 11:00:24;;;;;;;4.10;1.90;;;14.00;87.30;;;;;;4997107;28;20029;-74
2024/02/20 11:02:50;;;;;;;5.10;2.13;;;14.20;87.60;;;;;;4996913;28;20023;-74
2024/02/20 11:05:19;;;;;;;7.78;2.20;;;14.30;86.90;;;;;;4989990;28;20088;-73
2024/02/20 11:07:44;;;;;;;6.47;2.30;;;14.10;87.60;;;;;;4996910;28;20058;-73
2024/02/20 11:10:22;;;;;;;5.20;2.17;;;13.90;88.50;;;;;;4996415;28;20061;-76
2024/02/20 11:12:49;;;;;;;9.65;2.72;;;13.60;88.30;;;;;;5000347;28;20505;-76
2024/02/20 11:15:22;;;;;;;9.57;3.10;;;13.70;89.20;;;;;;4989234;28;20038;-75
2024/02/20 11:17:55;;;;;;;7.43;2.42;;;13.50;88.60;;;;;;4993122;28;20069;-73
2024/02/20 11:20:23;;;;;;;9.35;2.75;;;13.50;88.40;;;;;;4996182;28;20046;-77
2024/02/20 11:22:50;;;;;;;12.18;2.83;;;13.80;87.90;;;;;;4996060;28;20034;-76
2024/02/20 11:25:27;;;;;;;9.25;2.38;;;13.90;87.90;;;;;;4998900;28;20061;-76
2024/02/20 11:27:53;;;;;;;6.28;2.17;;;13.90;87.00;;;;;;4993757;28;20034;-73
2024/02/20 11:30:21;;;;;;;8.15;2.38;;;13.80;87.20;;;;;;4997957;28;20088;-76
2024/02/20 11:32:52;;;;;;;5.90;2.60;;;13.50;87.10;;;;;;4998125;28;20117;-73
2024/02/20 11:35:30;;;;;;;10.80;2.50;;;13.30;87.90;;;;;;4997808;28;20517;-76
2024/02/20 11:37:57;;;;;;;5.05;2.22;;;13.50;87.60;;;;;;5001142;28;20029;-75
2024/02/20 11:40:27;;;;;;;8.38;2.95;;;13.60;87.90;;;;;;5002234;28;20037;-75
2024/02/20 11:42:55;;;;;;;12.02;2.42;;;13.20;88.90;;;;;;4995843;28;20040;-75
2024/02/20 11:45:22;;;;;;;7.20;2.70;;;13.00;89.00;;;;;;4998194;28;20092;-76
2024/02/20 11:48:04;;;;;;;11.65;2.80;;;13.00;89.40;;;;;;5001004;28;20782;-75
2024/02/20 11:50:37;;;;;;;11.40;3.00;;;13.10;89.30;;;;;;5000887;28;20029;-75
2024/02/20 11:53:06;;;;;;;7.28;2.90;;;13.00;89.70;;;;;;5001093;28;20034;-75
2024/02/20 11:55:33;;;;;;;11.98;2.42;;;13.40;89.50;;;;;;4996081;28;20130;-74
2024/02/20 11:58:00;;;;;;;7.57;2.63;;;13.50;90.00;;;;;;4996572;28;20045;-73
2024/02/20 12:00:28;;;;;;;8.32;2.58;;;13.60;88.00;;;;;;4998751;28;20912;-76
2024/02/20 12:02:55;;;;;;;6.47;2.10;;;13.70;86.60;;;;;;5000193;28;20076;-74
2024/02/20 12:05:25;;;;;;;13.27;2.85;;;13.70;87.20;;;;;;4997754;28;20033;-76
2024/02/20 12:07:51;;;;;;;8.85;2.67;;;14.00;86.40;;;;;;4995468;28;20045;-78
2024/02/20 12:10:18;;;;;;;5.60;1.92;;;14.10;86.90;;;;;;4998313;28;20038;-71
2024/02/20 12:12:44;;;;;;;14.68;2.42;;;14.00;87.50;;;;;;5000697;28;20025;-72
2024/02/20 12:15:13;;;;;;;7.10;2.75;;;13.80;86.90;;;;;;4996470;28;20474;-72
2024/02/20 12:17:43;;;;;;;12.18;2.80;;;13.50;86.90;;;;;;4998193;28;20030;-74
2024/02/20 12:20:10;;;;;;;9.93;2.53;;;13.50;86.30;;;;;;4996987;28;20030;-73
2024/02/20 12:22:43;;;;;;;5.10;2.13;;;13.70;86.10;;;;;;4997411;28;20405;-72
2024/02/20 12:25:09;;;;;;;9.55;3.28;;;13.60;86.00;;;;;;5011624;28;20123;-77
2024/02/20 12:27:35;;;;;;;7.37;2.20;;;13.30;85.80;;;;;;4994392;28;20045;-74
2024/02/20 12:30:02;;;;;;;7.55;1.92;;;13.10;86.50;;;;;;4994733;28;20025;-75
2024/02/20 12:32:28;;;;;;;9.68;2.55;;;12.90;88.00;;;;;;4994707;28;20038;-76
2024/02/20 12:34:54;;;;;;;8.75;2.67;;;13.10;89.00;;;;;;4999035;28;20037;-77
2024/02/20 12:37:23;;;;;;;9.43;3.00;;;13.10;89.50;;;;;;4995698;28;20113;-74
2024/02/20 12:39:49;;;;;;;11.30;3.28;;;13.00;88.30;;;;;;4999620;28;20498;-78
2024/02/20 12:42:16;;;;;;;7.87;3.03;;;13.00;89.20;;;;;;5000342;28;20053;-74
2024/02/20 12:44:42;;;;;;;6.47;2.35;;;13.10;88.70;;;;;;4988858;28;20041;-72
2024/02/20 12:47:07;;;;;;;10.33;2.00;;;13.00;85.20;;;;;;4997371;28;20042;-75
2024/02/20 12:49:33;;;;;;;8.50;2.50;;;12.90;83.40;;;;;;4991017;28;20463;-74